Murdock, Minnesota
Current Conditions -  °F | °C
As of 3:55 PM on Thursday 27 Nov 2014 (Local Time) from KBDH Reporting Station
Clear Clear  
Wind Chill: -8°   Ceiling: Unl
Heat Index:   Visibility: 10mi
Dew Point: -4°   Wind: 8mph
Humidity: 66%   Direction: 130°SE
Pressure: 30.38"   Gusts: NA
Location:  45.22°N, 95.39°W
Report Text: KBDH 272155Z AUTO 13007KT 10SM CLR M15/M20 A3038 RMK AO2
Loading
Personal Weather Stations






























Interactive Weather Map New forecast layout! Learn more

10-Day Weather Forecast

Advertisements
Track Severe Weather on mobile